Perseverance — V7BS7 — position and weather

sailwx.info

Track history (hours):
 
Tides and Currents Weather Stations Pressure Air Temp Water Temp Dewpoint Dewpoint Depression Visibility Wind Speed Wind Dir Waves Ship Positions

Perseverance

Last reported at 2018-Jan-09 12:19 UTC. Time now 2018-Feb-26 01:51 UTC.
Position N 07°30' W 013°49'.
Warning: this ship's position is 47 days out of date.

Length 179 m; draft 9.5 m.

Type: Cargo ship. MMSI: 538005192.

Date/timePositionNaut miles runAvg speedWind from/ knotsBaromVisibWave heightAir tempDewpointWater temp
2018-Jan-09 12:19N 07°30' W 013°49'13611.4
2018-Jan-09 00:25N 09°01' W 015°32'1011.4
2018-Jan-08 23:30N 09°09' W 015°38'611.2
2018-Jan-08 23:00N 09°13' W 015°42'611.1
2018-Jan-08 22:31N 09°16' W 015°46'611.1
2018-Jan-08 22:01N 09°21' W 015°50'511.0
2018-Jan-08 21:31N 09°25' W 015°54'511.0
2018-Jan-08 21:01N 09°29' W 015°57'611.0
2018-Jan-08 20:30N 09°33' W 016°01'510.8
2018-Jan-08 20:01N 09°37' W 016°05'510.8
2018-Jan-08 19:31N 09°41' W 016°09'510.7
2018-Jan-08 19:01N 09°44' W 016°13'611.0
2018-Jan-08 18:31N 09°48' W 016°16'611.0
2018-Jan-08 18:01N 09°53' W 016°20'611.1
2018-Jan-08 17:31N 09°57' W 016°24'511.0
2018-Jan-08 17:01N 10°01' W 016°27'1610.9
2018-Jan-08 15:34N 10°13' W 016°38'110.8
2018-Jan-08 15:31N 10°13' W 016°38'910.9
2018-Jan-08 14:40N 10°20' W 016°44'2310.8
2018-Jan-08 12:30N 10°37' W 017°01'  
2018-Jan-05 04:55N 25°03' W 015°47'811.7
2018-Jan-05 04:15N 25°10' W 015°42'2311.6
2018-Jan-05 02:17N 25°28' W 015°28'311.6
2018-Jan-05 02:00N 25°31' W 015°26'711.7
2018-Jan-05 01:27N 25°36' W 015°22'511.9
2018-Jan-05 01:00N 25°41' W 015°18'611.6
2018-Jan-05 00:29N 25°46' W 015°15'1612.0
2018-Jan-04 23:08N 25°59' W 015°04'212.0
2018-Jan-04 22:59N 26°00' W 015°03'612.2
2018-Jan-04 22:30N 26°05' W 014°59'612.0
2018-Jan-04 21:59N 26°10' W 014°55'611.8
2018-Jan-04 21:29N 26°15' W 014°51'611.8
2018-Jan-04 20:58N 26°20' W 014°48'612.0
2018-Jan-04 20:30N 26°25' W 014°44'612.2
2018-Jan-04 20:01N 26°29' W 014°40'612.1
2018-Jan-04 19:31N 26°35' W 014°36'611.9
2018-Jan-04 19:00N 26°40' W 014°33'611.6
2018-Jan-04 18:30N 26°45' W 014°29'611.7
2018-Jan-04 18:01N 26°49' W 014°25'611.7
2018-Jan-04 17:31N 26°54' W 014°21'611.6
2018-Jan-04 17:00N 26°59' W 014°18'611.5
2018-Jan-04 16:28N 27°04' W 014°14'511.7
2018-Jan-04 16:01N 27°08' W 014°11'611.8
2018-Jan-04 15:30N 27°13' W 014°07'611.7
2018-Jan-04 15:00N 27°18' W 014°03'611.6
2018-Jan-04 14:30N 27°23' W 013°59'611.7
2018-Jan-04 14:00N 27°27' W 013°55'611.3
2018-Jan-04 13:30N 27°32' W 013°52'611.5
2018-Jan-04 13:00N 27°37' W 013°48'611.5
2018-Jan-04 12:29N 27°42' W 013°44'611.8
2018-Jan-04 11:59N 27°47' W 013°40'611.8
2018-Jan-04 11:30N 27°51' W 013°37'711.5
2018-Jan-04 10:53N 27°57' W 013°32'511.3
2018-Jan-04 10:29N 28°01' W 013°29'712.0
2018-Jan-04 09:56N 28°06' W 013°25'612.1
2018-Jan-04 09:28N 28°11' W 013°22'612.1
2018-Jan-04 09:00N 28°16' W 013°18'612.2
2018-Jan-04 08:30N 28°21' W 013°14'811.8
2018-Jan-04 07:49N 28°27' W 013°09'411.6
2018-Jan-04 07:26N 28°31' W 013°07'611.7
2018-Jan-04 06:54N 28°37' W 013°03'512.1
2018-Jan-04 06:30N 28°41' W 012°60'1411.7
2018-Jan-04 05:21N 28°51' W 012°51'511.3
2018-Jan-04 04:57N 28°55' W 012°48'511.1
2018-Jan-04 04:31N 28°59' W 012°45'611.1
2018-Jan-04 03:56N 29°05' W 012°41'511.2
2018-Jan-04 03:31N 29°09' W 012°38'611.3
2018-Jan-04 03:01N 29°13' W 012°34'611.2
2018-Jan-04 02:30N 29°18' W 012°31'611.3
2018-Jan-04 02:00N 29°23' W 012°27'611.4
2018-Jan-04 01:30N 29°27' W 012°23'10311.3
2018-Jan-03 16:22N 30°53' W 011°17'411.3
2018-Jan-03 15:59N 30°56' W 011°14'611.4
2018-Jan-03 15:30N 31°01' W 011°10'611.3
2018-Jan-03 15:01N 31°06' W 011°07'611.6
2018-Jan-03 14:31N 31°10' W 011°03'611.4
2018-Jan-03 14:01N 31°15' W 010°59'611.5
2018-Jan-03 13:31N 31°20' W 010°55'611.3
2018-Jan-03 13:00N 31°25' W 010°52'611.4
2018-Jan-03 12:30N 31°29' W 010°48'4811.5
2018-Jan-03 08:18N 32°10' W 010°16'311.2
2018-Jan-03 08:00N 32°13' W 010°14'611.6
2018-Jan-03 07:30N 32°17' W 010°11'611.5
2018-Jan-03 07:00N 32°22' W 010°07'611.6
2018-Jan-03 06:28N 32°28' W 010°03'4011.3
2018-Jan-03 02:57N 32°48' W 009°22'  
Track history (hours):
 
Tides and Currents Weather Stations Pressure Air Temp Water Temp Dewpoint Dewpoint Depression Visibility Wind Speed Wind Dir Waves Ship Positions

Perseverance

Last reported at 2018-Jan-09 12:19 UTC. Time now 2018-Feb-26 01:51 UTC.
Position N 07°30' W 013°49'.
Warning: this ship's position is 47 days out of date.

Length 179 m; draft 9.5 m.

Type: Cargo ship. MMSI: 538005192.

Date/timePositionNaut miles runAvg speedWind from/ knotsBaromVisibWave heightAir tempDewpointWater temp
2018-Jan-09 12:19N 07°30' W 013°49'13611.4
2018-Jan-09 00:25N 09°01' W 015°32'1011.4
2018-Jan-08 23:30N 09°09' W 015°38'611.2
2018-Jan-08 23:00N 09°13' W 015°42'611.1
2018-Jan-08 22:31N 09°16' W 015°46'611.1
2018-Jan-08 22:01N 09°21' W 015°50'511.0
2018-Jan-08 21:31N 09°25' W 015°54'511.0
2018-Jan-08 21:01N 09°29' W 015°57'611.0
2018-Jan-08 20:30N 09°33' W 016°01'510.8
2018-Jan-08 20:01N 09°37' W 016°05'510.8
2018-Jan-08 19:31N 09°41' W 016°09'510.7
2018-Jan-08 19:01N 09°44' W 016°13'611.0
2018-Jan-08 18:31N 09°48' W 016°16'611.0
2018-Jan-08 18:01N 09°53' W 016°20'611.1
2018-Jan-08 17:31N 09°57' W 016°24'511.0
2018-Jan-08 17:01N 10°01' W 016°27'1610.9
2018-Jan-08 15:34N 10°13' W 016°38'110.8
2018-Jan-08 15:31N 10°13' W 016°38'910.9
2018-Jan-08 14:40N 10°20' W 016°44'2310.8
2018-Jan-08 12:30N 10°37' W 017°01'  
2018-Jan-05 04:55N 25°03' W 015°47'811.7
2018-Jan-05 04:15N 25°10' W 015°42'2311.6
2018-Jan-05 02:17N 25°28' W 015°28'311.6
2018-Jan-05 02:00N 25°31' W 015°26'711.7
2018-Jan-05 01:27N 25°36' W 015°22'511.9
2018-Jan-05 01:00N 25°41' W 015°18'611.6
2018-Jan-05 00:29N 25°46' W 015°15'1612.0
2018-Jan-04 23:08N 25°59' W 015°04'212.0
2018-Jan-04 22:59N 26°00' W 015°03'612.2
2018-Jan-04 22:30N 26°05' W 014°59'612.0
2018-Jan-04 21:59N 26°10' W 014°55'611.8
2018-Jan-04 21:29N 26°15' W 014°51'611.8
2018-Jan-04 20:58N 26°20' W 014°48'612.0
2018-Jan-04 20:30N 26°25' W 014°44'612.2
2018-Jan-04 20:01N 26°29' W 014°40'612.1
2018-Jan-04 19:31N 26°35' W 014°36'611.9
2018-Jan-04 19:00N 26°40' W 014°33'611.6
2018-Jan-04 18:30N 26°45' W 014°29'611.7
2018-Jan-04 18:01N 26°49' W 014°25'611.7
2018-Jan-04 17:31N 26°54' W 014°21'611.6
2018-Jan-04 17:00N 26°59' W 014°18'611.5
2018-Jan-04 16:28N 27°04' W 014°14'511.7
2018-Jan-04 16:01N 27°08' W 014°11'611.8
2018-Jan-04 15:30N 27°13' W 014°07'611.7
2018-Jan-04 15:00N 27°18' W 014°03'611.6
2018-Jan-04 14:30N 27°23' W 013°59'611.7
2018-Jan-04 14:00N 27°27' W 013°55'611.3
2018-Jan-04 13:30N 27°32' W 013°52'611.5
2018-Jan-04 13:00N 27°37' W 013°48'611.5
2018-Jan-04 12:29N 27°42' W 013°44'611.8
2018-Jan-04 11:59N 27°47' W 013°40'611.8
2018-Jan-04 11:30N 27°51' W 013°37'711.5
2018-Jan-04 10:53N 27°57' W 013°32'511.3
2018-Jan-04 10:29N 28°01' W 013°29'712.0
2018-Jan-04 09:56N 28°06' W 013°25'612.1
2018-Jan-04 09:28N 28°11' W 013°22'612.1
2018-Jan-04 09:00N 28°16' W 013°18'612.2
2018-Jan-04 08:30N 28°21' W 013°14'811.8
2018-Jan-04 07:49N 28°27' W 013°09'411.6
2018-Jan-04 07:26N 28°31' W 013°07'611.7
2018-Jan-04 06:54N 28°37' W 013°03'512.1
2018-Jan-04 06:30N 28°41' W 012°60'1411.7
2018-Jan-04 05:21N 28°51' W 012°51'511.3
2018-Jan-04 04:57N 28°55' W 012°48'511.1
2018-Jan-04 04:31N 28°59' W 012°45'611.1
2018-Jan-04 03:56N 29°05' W 012°41'511.2
2018-Jan-04 03:31N 29°09' W 012°38'611.3
2018-Jan-04 03:01N 29°13' W 012°34'611.2
2018-Jan-04 02:30N 29°18' W 012°31'611.3
2018-Jan-04 02:00N 29°23' W 012°27'611.4
2018-Jan-04 01:30N 29°27' W 012°23'10311.3
2018-Jan-03 16:22N 30°53' W 011°17'411.3
2018-Jan-03 15:59N 30°56' W 011°14'611.4
2018-Jan-03 15:30N 31°01' W 011°10'611.3
2018-Jan-03 15:01N 31°06' W 011°07'611.6
2018-Jan-03 14:31N 31°10' W 011°03'611.4
2018-Jan-03 14:01N 31°15' W 010°59'611.5
2018-Jan-03 13:31N 31°20' W 010°55'611.3
2018-Jan-03 13:00N 31°25' W 010°52'611.4
2018-Jan-03 12:30N 31°29' W 010°48'4811.5
2018-Jan-03 08:18N 32°10' W 010°16'311.2
2018-Jan-03 08:00N 32°13' W 010°14'611.6
2018-Jan-03 07:30N 32°17' W 010°11'611.5
2018-Jan-03 07:00N 32°22' W 010°07'611.6
2018-Jan-03 06:28N 32°28' W 010°03'4011.3
2018-Jan-03 02:57N 32°48' W 009°22'  

Dump ship's entire track history